sensor_id;sensor_type;location;lat;lon;timestamp;P1;durP1;ratioP1;P2;durP2;ratioP2
23046;SDS011;11691;51.462;6.902;2022-09-25T00:01:14;9.88;;;4.78;;
23046;SDS011;11691;51.462;6.902;2022-09-25T00:03:41;12.63;;;4.78;;
23046;SDS011;11691;51.462;6.902;2022-09-25T00:08:35;8.32;;;4.47;;
23046;SDS011;11691;51.462;6.902;2022-09-25T00:11:05;6.22;;;4.68;;
23046;SDS011;11691;51.462;6.902;2022-09-25T00:13:32;14.43;;;5.05;;
23046;SDS011;11691;51.462;6.902;2022-09-25T00:15:58;11.50;;;4.75;;
23046;SDS011;11691;51.462;6.902;2022-09-25T00:18:25;8.85;;;4.57;;
23046;SDS011;11691;51.462;6.902;2022-09-25T00:21:10;10.43;;;4.53;;
23046;SDS011;11691;51.462;6.902;2022-09-25T00:23:38;10.70;;;4.90;;
23046;SDS011;11691;51.462;6.902;2022-09-25T00:26:05;11.82;;;4.90;;
23046;SDS011;11691;51.462;6.902;2022-09-25T00:28:32;9.23;;;4.15;;
23046;SDS011;11691;51.462;6.902;2022-09-25T00:31:01;9.70;;;4.20;;
23046;SDS011;11691;51.462;6.902;2022-09-25T00:33:29;9.38;;;4.50;;
23046;SDS011;11691;51.462;6.902;2022-09-25T00:36:02;7.28;;;3.63;;
23046;SDS011;11691;51.462;6.902;2022-09-25T00:38:29;9.05;;;3.58;;
23046;SDS011;11691;51.462;6.902;2022-09-25T00:40:55;6.53;;;3.20;;
23046;SDS011;11691;51.462;6.902;2022-09-25T00:43:40;12.90;;;3.88;;
23046;SDS011;11691;51.462;6.902;2022-09-25T00:46:18;9.40;;;3.55;;
23046;SDS011;11691;51.462;6.902;2022-09-25T00:49:01;8.25;;;3.00;;
23046;SDS011;11691;51.462;6.902;2022-09-25T00:51:41;6.72;;;2.97;;
23046;SDS011;11691;51.462;6.902;2022-09-25T00:54:11;8.27;;;2.70;;
23046;SDS011;11691;51.462;6.902;2022-09-25T00:56:40;9.25;;;2.38;;
23046;SDS011;11691;51.462;6.902;2022-09-25T00:59:08;6.45;;;2.17;;
23046;SDS011;11691;51.462;6.902;2022-09-25T01:01:35;7.65;;;2.28;;
23046;SDS011;11691;51.462;6.902;2022-09-25T01:04:01;8.05;;;2.55;;
23046;SDS011;11691;51.462;6.902;2022-09-25T01:06:27;9.32;;;2.42;;
23046;SDS011;11691;51.462;6.902;2022-09-25T01:08:54;7.50;;;2.15;;
23046;SDS011;11691;51.462;6.902;2022-09-25T01:11:20;7.45;;;2.30;;
23046;SDS011;11691;51.462;6.902;2022-09-25T01:13:46;8.55;;;2.40;;
23046;SDS011;11691;51.462;6.902;2022-09-25T01:24:14;5.97;;;2.25;;
23046;SDS011;11691;51.462;6.902;2022-09-25T01:26:58;6.93;;;1.92;;
23046;SDS011;11691;51.462;6.902;2022-09-25T01:37:04;7.93;;;2.10;;
23046;SDS011;11691;51.462;6.902;2022-09-25T01:39:37;7.97;;;2.28;;
23046;SDS011;11691;51.462;6.902;2022-09-25T01:42:14;9.95;;;2.80;;
23046;SDS011;11691;51.462;6.902;2022-09-25T01:44:54;11.20;;;2.40;;
23046;SDS011;11691;51.462;6.902;2022-09-25T01:47:27;8.45;;;2.40;;
23046;SDS011;11691;51.462;6.902;2022-09-25T01:49:58;8.30;;;2.50;;
23046;SDS011;11691;51.462;6.902;2022-09-25T01:52:27;4.60;;;2.30;;
23046;SDS011;11691;51.462;6.902;2022-09-25T01:54:57;8.32;;;2.63;;
23046;SDS011;11691;51.462;6.902;2022-09-25T01:57:27;12.77;;;3.03;;
23046;SDS011;11691;51.462;6.902;2022-09-25T02:02:34;8.43;;;3.53;;
23046;SDS011;11691;51.462;6.902;2022-09-25T02:07:34;8.73;;;2.42;;
23046;SDS011;11691;51.462;6.902;2022-09-25T02:10:11;6.63;;;2.05;;
23046;SDS011;11691;51.462;6.902;2022-09-25T02:12:40;6.30;;;2.15;;
23046;SDS011;11691;51.462;6.902;2022-09-25T02:15:15;7.53;;;2.40;;
23046;SDS011;11691;51.462;6.902;2022-09-25T02:17:48;6.80;;;2.28;;
23046;SDS011;11691;51.462;6.902;2022-09-25T02:20:34;9.18;;;2.40;;
23046;SDS011;11691;51.462;6.902;2022-09-25T02:23:22;8.05;;;1.92;;
23046;SDS011;11691;51.462;6.902;2022-09-25T02:25:59;8.27;;;2.33;;
23046;SDS011;11691;51.462;6.902;2022-09-25T02:28:29;6.55;;;1.92;;
23046;SDS011;11691;51.462;6.902;2022-09-25T02:30:56;6.85;;;2.28;;
23046;SDS011;11691;51.462;6.902;2022-09-25T02:33:23;7.45;;;1.90;;
23046;SDS011;11691;51.462;6.902;2022-09-25T02:35:50;6.55;;;2.25;;
23046;SDS011;11691;51.462;6.902;2022-09-25T02:38:17;7.55;;;2.42;;
23046;SDS011;11691;51.462;6.902;2022-09-25T02:40:45;9.70;;;1.95;;
23046;SDS011;11691;51.462;6.902;2022-09-25T02:46:06;6.25;;;1.85;;
23046;SDS011;11691;51.462;6.902;2022-09-25T02:51:56;6.15;;;1.73;;
23046;SDS011;11691;51.462;6.902;2022-09-25T02:57:21;5.60;;;2.20;;
23046;SDS011;11691;51.462;6.902;2022-09-25T02:59:58;4.97;;;2.25;;
23046;SDS011;11691;51.462;6.902;2022-09-25T03:02:26;4.90;;;1.90;;
23046;SDS011;11691;51.462;6.902;2022-09-25T03:04:54;8.35;;;2.25;;
23046;SDS011;11691;51.462;6.902;2022-09-25T03:07:22;11.25;;;2.92;;
23046;SDS011;11691;51.462;6.902;2022-09-25T03:09:48;11.90;;;2.63;;
23046;SDS011;11691;51.462;6.902;2022-09-25T03:12:16;9.80;;;2.85;;
23046;SDS011;11691;51.462;6.902;2022-09-25T03:14:43;10.52;;;2.67;;
23046;SDS011;11691;51.462;6.902;2022-09-25T03:17:09;7.63;;;2.58;;
23046;SDS011;11691;51.462;6.902;2022-09-25T03:19:36;8.75;;;2.63;;
23046;SDS011;11691;51.462;6.902;2022-09-25T03:22:02;8.93;;;2.63;;
23046;SDS011;11691;51.462;6.902;2022-09-25T03:24:28;11.02;;;2.70;;
23046;SDS011;11691;51.462;6.902;2022-09-25T03:26:55;10.02;;;2.78;;
23046;SDS011;11691;51.462;6.902;2022-09-25T03:29:21;8.60;;;2.72;;
23046;SDS011;11691;51.462;6.902;2022-09-25T03:31:47;6.50;;;2.33;;
23046;SDS011;11691;51.462;6.902;2022-09-25T03:34:14;7.25;;;2.45;;
23046;SDS011;11691;51.462;6.902;2022-09-25T03:36:40;8.43;;;2.95;;
23046;SDS011;11691;51.462;6.902;2022-09-25T03:39:06;8.43;;;2.42;;
23046;SDS011;11691;51.462;6.902;2022-09-25T03:41:35;8.13;;;2.78;;
23046;SDS011;11691;51.462;6.902;2022-09-25T03:44:01;8.52;;;2.67;;
23046;SDS011;11691;51.462;6.902;2022-09-25T03:46:29;15.30;;;2.75;;
23046;SDS011;11691;51.462;6.902;2022-09-25T03:48:55;10.10;;;2.95;;
23046;SDS011;11691;51.462;6.902;2022-09-25T03:51:22;9.15;;;2.85;;
23046;SDS011;11691;51.462;6.902;2022-09-25T03:53:48;11.30;;;2.60;;
23046;SDS011;11691;51.462;6.902;2022-09-25T03:56:16;9.52;;;2.33;;
23046;SDS011;11691;51.462;6.902;2022-09-25T03:58:44;5.68;;;2.78;;
23046;SDS011;11691;51.462;6.902;2022-09-25T04:01:11;10.10;;;2.70;;
23046;SDS011;11691;51.462;6.902;2022-09-25T04:03:38;7.65;;;2.88;;
23046;SDS011;11691;51.462;6.902;2022-09-25T04:06:05;6.20;;;2.65;;
23046;SDS011;11691;51.462;6.902;2022-09-25T04:08:32;6.88;;;2.78;;
23046;SDS011;11691;51.462;6.902;2022-09-25T04:10:58;8.65;;;2.65;;
23046;SDS011;11691;51.462;6.902;2022-09-25T04:13:25;9.85;;;2.83;;
23046;SDS011;11691;51.462;6.902;2022-09-25T04:15:54;6.10;;;2.67;;
23046;SDS011;11691;51.462;6.902;2022-09-25T04:18:20;7.75;;;2.65;;
23046;SDS011;11691;51.462;6.902;2022-09-25T04:20:46;5.43;;;2.92;;
23046;SDS011;11691;51.462;6.902;2022-09-25T04:23:12;13.40;;;2.78;;
23046;SDS011;11691;51.462;6.902;2022-09-25T04:25:38;5.72;;;2.80;;
23046;SDS011;11691;51.462;6.902;2022-09-25T04:28:04;8.07;;;2.90;;
23046;SDS011;11691;51.462;6.902;2022-09-25T04:30:31;8.23;;;2.92;;
23046;SDS011;11691;51.462;6.902;2022-09-25T04:32:57;9.80;;;2.63;;
23046;SDS011;11691;51.462;6.902;2022-09-25T04:35:42;7.95;;;2.40;;
23046;SDS011;11691;51.462;6.902;2022-09-25T04:38:08;8.23;;;2.78;;
23046;SDS011;11691;51.462;6.902;2022-09-25T04:40:35;11.05;;;2.33;;
23046;SDS011;11691;51.462;6.902;2022-09-25T04:43:01;9.77;;;1.95;;
23046;SDS011;11691;51.462;6.902;2022-09-25T04:45:28;8.93;;;1.90;;
23046;SDS011;11691;51.462;6.902;2022-09-25T04:47:55;6.07;;;2.00;;
23046;SDS011;11691;51.462;6.902;2022-09-25T04:50:23;9.13;;;2.20;;
23046;SDS011;11691;51.462;6.902;2022-09-25T04:52:49;8.07;;;1.90;;
23046;SDS011;11691;51.462;6.902;2022-09-25T04:55:20;9.02;;;2.08;;
23046;SDS011;11691;51.462;6.902;2022-09-25T04:57:58;4.47;;;1.83;;
23046;SDS011;11691;51.462;6.902;2022-09-25T05:00:29;11.52;;;2.10;;
23046;SDS011;11691;51.462;6.902;2022-09-25T05:02:55;6.28;;;1.83;;
23046;SDS011;11691;51.462;6.902;2022-09-25T05:05:21;10.27;;;2.17;;
23046;SDS011;11691;51.462;6.902;2022-09-25T05:07:52;5.22;;;2.20;;
23046;SDS011;11691;51.462;6.902;2022-09-25T05:10:20;11.30;;;2.22;;
23046;SDS011;11691;51.462;6.902;2022-09-25T05:12:46;6.93;;;2.20;;
23046;SDS011;11691;51.462;6.902;2022-09-25T05:15:13;5.07;;;1.60;;
23046;SDS011;11691;51.462;6.902;2022-09-25T05:17:39;10.35;;;2.28;;
23046;SDS011;11691;51.462;6.902;2022-09-25T05:20:05;6.82;;;1.70;;
23046;SDS011;11691;51.462;6.902;2022-09-25T05:22:31;6.90;;;2.15;;
23046;SDS011;11691;51.462;6.902;2022-09-25T05:24:56;6.43;;;2.30;;
23046;SDS011;11691;51.462;6.902;2022-09-25T05:27:22;6.82;;;1.92;;
23046;SDS011;11691;51.462;6.902;2022-09-25T05:29:48;7.05;;;1.95;;
23046;SDS011;11691;51.462;6.902;2022-09-25T05:32:14;7.13;;;1.50;;
23046;SDS011;11691;51.462;6.902;2022-09-25T05:34:41;5.18;;;1.98;;
23046;SDS011;11691;51.462;6.902;2022-09-25T05:37:07;6.72;;;1.98;;
23046;SDS011;11691;51.462;6.902;2022-09-25T05:39:32;7.15;;;2.40;;
23046;SDS011;11691;51.462;6.902;2022-09-25T05:41:58;6.30;;;2.22;;
23046;SDS011;11691;51.462;6.902;2022-09-25T05:44:26;8.57;;;2.38;;
23046;SDS011;11691;51.462;6.902;2022-09-25T05:46:52;6.68;;;2.50;;
23046;SDS011;11691;51.462;6.902;2022-09-25T05:49:20;5.55;;;1.98;;
23046;SDS011;11691;51.462;6.902;2022-09-25T05:51:46;8.75;;;1.95;;
23046;SDS011;11691;51.462;6.902;2022-09-25T05:54:12;7.35;;;2.38;;
23046;SDS011;11691;51.462;6.902;2022-09-25T05:56:38;9.50;;;2.67;;
23046;SDS011;11691;51.462;6.902;2022-09-25T05:59:04;6.43;;;3.13;;
23046;SDS011;11691;51.462;6.902;2022-09-25T06:01:30;12.98;;;5.18;;
23046;SDS011;11691;51.462;6.902;2022-09-25T06:03:56;9.52;;;4.63;;
23046;SDS011;11691;51.462;6.902;2022-09-25T06:06:22;11.15;;;3.70;;
23046;SDS011;11691;51.462;6.902;2022-09-25T06:08:48;6.47;;;2.92;;
23046;SDS011;11691;51.462;6.902;2022-09-25T06:11:14;6.32;;;2.42;;
23046;SDS011;11691;51.462;6.902;2022-09-25T06:13:40;7.68;;;2.47;;
23046;SDS011;11691;51.462;6.902;2022-09-25T06:16:14;7.00;;;2.00;;
23046;SDS011;11691;51.462;6.902;2022-09-25T06:18:43;7.00;;;2.35;;
23046;SDS011;11691;51.462;6.902;2022-09-25T06:21:10;7.25;;;2.15;;
23046;SDS011;11691;51.462;6.902;2022-09-25T06:23:36;9.48;;;2.35;;
23046;SDS011;11691;51.462;6.902;2022-09-25T06:26:02;7.80;;;2.10;;
23046;SDS011;11691;51.462;6.902;2022-09-25T06:28:29;6.80;;;2.08;;
23046;SDS011;11691;51.462;6.902;2022-09-25T06:30:55;4.47;;;2.00;;
23046;SDS011;11691;51.462;6.902;2022-09-25T06:33:24;8.50;;;2.08;;
23046;SDS011;11691;51.462;6.902;2022-09-25T06:35:49;7.25;;;1.85;;
23046;SDS011;11691;51.462;6.902;2022-09-25T06:38:15;9.73;;;1.90;;
23046;SDS011;11691;51.462;6.902;2022-09-25T06:40:42;8.63;;;2.00;;
23046;SDS011;11691;51.462;6.902;2022-09-25T06:43:08;6.10;;;2.05;;
23046;SDS011;11691;51.462;6.902;2022-09-25T06:45:35;10.18;;;2.08;;
23046;SDS011;11691;51.462;6.902;2022-09-25T06:50:47;8.60;;;2.47;;
23046;SDS011;11691;51.462;6.902;2022-09-25T06:53:19;4.72;;;2.15;;
23046;SDS011;11691;51.462;6.902;2022-09-25T06:55:45;5.82;;;2.05;;
23046;SDS011;11691;51.462;6.902;2022-09-25T06:58:13;7.90;;;2.47;;
23046;SDS011;11691;51.462;6.902;2022-09-25T07:00:39;6.82;;;2.30;;
23046;SDS011;11691;51.462;6.902;2022-09-25T07:03:05;9.07;;;2.13;;
23046;SDS011;11691;51.462;6.902;2022-09-25T07:05:49;7.60;;;1.90;;
23046;SDS011;11691;51.462;6.902;2022-09-25T07:08:16;7.13;;;2.10;;
23046;SDS011;11691;51.462;6.902;2022-09-25T07:10:52;8.98;;;2.10;;
23046;SDS011;11691;51.462;6.902;2022-09-25T07:13:20;8.05;;;1.83;;
23046;SDS011;11691;51.462;6.902;2022-09-25T07:15:53;7.50;;;2.22;;
23046;SDS011;11691;51.462;6.902;2022-09-25T07:18:20;6.90;;;2.53;;
23046;SDS011;11691;51.462;6.902;2022-09-25T07:20:47;5.70;;;2.17;;
23046;SDS011;11691;51.462;6.902;2022-09-25T07:23:13;7.90;;;1.73;;
23046;SDS011;11691;51.462;6.902;2022-09-25T07:25:41;8.30;;;1.85;;
23046;SDS011;11691;51.462;6.902;2022-09-25T07:28:08;7.35;;;1.60;;
23046;SDS011;11691;51.462;6.902;2022-09-25T07:30:35;4.35;;;1.83;;
23046;SDS011;11691;51.462;6.902;2022-09-25T07:33:01;8.52;;;1.80;;
23046;SDS011;11691;51.462;6.902;2022-09-25T07:35:26;7.43;;;1.60;;
23046;SDS011;11691;51.462;6.902;2022-09-25T07:37:56;8.95;;;1.85;;
23046;SDS011;11691;51.462;6.902;2022-09-25T07:40:22;3.60;;;1.30;;
23046;SDS011;11691;51.462;6.902;2022-09-25T07:42:50;8.45;;;1.27;;
23046;SDS011;11691;51.462;6.902;2022-09-25T07:45:16;8.10;;;1.27;;
23046;SDS011;11691;51.462;6.902;2022-09-25T07:47:41;8.57;;;1.50;;
23046;SDS011;11691;51.462;6.902;2022-09-25T07:50:07;5.95;;;1.50;;
23046;SDS011;11691;51.462;6.902;2022-09-25T07:52:33;8.57;;;1.17;;
23046;SDS011;11691;51.462;6.902;2022-09-25T07:54:59;16.50;;;1.95;;
23046;SDS011;11691;51.462;6.902;2022-09-25T07:57:25;9.50;;;1.25;;
23046;SDS011;11691;51.462;6.902;2022-09-25T07:59:51;5.78;;;1.30;;
23046;SDS011;11691;51.462;6.902;2022-09-25T08:02:17;6.30;;;1.40;;
23046;SDS011;11691;51.462;6.902;2022-09-25T08:04:43;11.02;;;1.30;;
23046;SDS011;11691;51.462;6.902;2022-09-25T08:07:09;6.30;;;1.08;;
23046;SDS011;11691;51.462;6.902;2022-09-25T08:09:36;5.80;;;1.20;;
23046;SDS011;11691;51.462;6.902;2022-09-25T08:12:03;4.18;;;0.90;;
23046;SDS011;11691;51.462;6.902;2022-09-25T08:14:29;9.48;;;1.20;;
23046;SDS011;11691;51.462;6.902;2022-09-25T08:16:56;8.05;;;1.25;;
23046;SDS011;11691;51.462;6.902;2022-09-25T08:19:22;7.50;;;1.10;;
23046;SDS011;11691;51.462;6.902;2022-09-25T08:21:48;5.97;;;1.23;;
23046;SDS011;11691;51.462;6.902;2022-09-25T08:24:14;7.53;;;1.15;;
23046;SDS011;11691;51.462;6.902;2022-09-25T08:26:40;8.80;;;1.30;;
23046;SDS011;11691;51.462;6.902;2022-09-25T08:29:06;4.32;;;1.17;;
23046;SDS011;11691;51.462;6.902;2022-09-25T08:31:33;4.57;;;1.00;;
23046;SDS011;11691;51.462;6.902;2022-09-25T08:33:59;5.38;;;1.00;;
23046;SDS011;11691;51.462;6.902;2022-09-25T08:36:24;5.93;;;0.95;;
23046;SDS011;11691;51.462;6.902;2022-09-25T08:38:50;5.75;;;0.98;;
23046;SDS011;11691;51.462;6.902;2022-09-25T08:41:25;6.82;;;1.17;;
23046;SDS011;11691;51.462;6.902;2022-09-25T08:46:39;4.88;;;1.27;;
23046;SDS011;11691;51.462;6.902;2022-09-25T08:49:34;7.15;;;0.95;;
23046;SDS011;11691;51.462;6.902;2022-09-25T08:52:05;3.28;;;0.75;;
23046;SDS011;11691;51.462;6.902;2022-09-25T08:54:33;8.27;;;1.40;;
23046;SDS011;11691;51.462;6.902;2022-09-25T08:57:17;4.07;;;0.82;;
23046;SDS011;11691;51.462;6.902;2022-09-25T08:59:47;7.00;;;1.38;;
23046;SDS011;11691;51.462;6.902;2022-09-25T09:02:17;3.63;;;0.90;;
23046;SDS011;11691;51.462;6.902;2022-09-25T09:04:46;5.95;;;0.80;;
23046;SDS011;11691;51.462;6.902;2022-09-25T09:07:23;7.40;;;1.10;;
23046;SDS011;11691;51.462;6.902;2022-09-25T09:12:42;6.63;;;1.10;;
23046;SDS011;11691;51.462;6.902;2022-09-25T09:18:04;7.38;;;1.15;;
23046;SDS011;11691;51.462;6.902;2022-09-25T09:20:52;4.03;;;0.82;;
23046;SDS011;11691;51.462;6.902;2022-09-25T09:23:23;6.43;;;1.10;;
23046;SDS011;11691;51.462;6.902;2022-09-25T09:26:03;4.05;;;0.95;;
23046;SDS011;11691;51.462;6.902;2022-09-25T09:36:43;3.55;;;1.00;;
23046;SDS011;11691;51.462;6.902;2022-09-25T09:39:58;5.97;;;0.90;;
23046;SDS011;11691;51.462;6.902;2022-09-25T09:42:25;2.95;;;0.88;;
23046;SDS011;11691;51.462;6.902;2022-09-25T09:47:54;9.27;;;0.90;;
23046;SDS011;11691;51.462;6.902;2022-09-25T09:50:28;2.63;;;0.63;;
23046;SDS011;11691;51.462;6.902;2022-09-25T09:53:04;4.68;;;0.70;;
23046;SDS011;11691;51.462;6.902;2022-09-25T09:55:42;3.75;;;0.80;;
23046;SDS011;11691;51.462;6.902;2022-09-25T09:58:18;4.10;;;0.75;;
23046;SDS011;11691;51.462;6.902;2022-09-25T10:00:49;4.38;;;0.93;;
23046;SDS011;11691;51.462;6.902;2022-09-25T10:05:56;5.50;;;0.88;;
23046;SDS011;11691;51.462;6.902;2022-09-25T10:08:25;5.45;;;0.90;;
23046;SDS011;11691;51.462;6.902;2022-09-25T10:10:51;3.38;;;0.95;;
23046;SDS011;11691;51.462;6.902;2022-09-25T10:15:47;1.85;;;0.75;;
23046;SDS011;11691;51.462;6.902;2022-09-25T10:18:17;4.72;;;0.93;;
23046;SDS011;11691;51.462;6.902;2022-09-25T10:20:46;4.38;;;0.70;;
23046;SDS011;11691;51.462;6.902;2022-09-25T10:26:04;2.88;;;0.60;;
23046;SDS011;11691;51.462;6.902;2022-09-25T10:28:46;3.15;;;0.73;;
23046;SDS011;11691;51.462;6.902;2022-09-25T10:31:13;6.57;;;0.85;;
23046;SDS011;11691;51.462;6.902;2022-09-25T10:33:40;3.70;;;0.80;;
23046;SDS011;11691;51.462;6.902;2022-09-25T10:36:06;3.28;;;0.85;;
23046;SDS011;11691;51.462;6.902;2022-09-25T10:38:38;2.42;;;0.70;;
23046;SDS011;11691;51.462;6.902;2022-09-25T10:41:12;2.47;;;0.60;;
23046;SDS011;11691;51.462;6.902;2022-09-25T10:44:19;3.17;;;0.52;;
23046;SDS011;11691;51.462;6.902;2022-09-25T10:46:34;2.50;;;0.68;;
23046;SDS011;11691;51.462;6.902;2022-09-25T10:49:24;4.28;;;0.70;;
23046;SDS011;11691;51.462;6.902;2022-09-25T10:52:10;2.50;;;0.60;;
23046;SDS011;11691;51.462;6.902;2022-09-25T10:54:40;4.45;;;0.80;;
23046;SDS011;11691;51.462;6.902;2022-09-25T10:57:27;5.00;;;1.08;;
23046;SDS011;11691;51.462;6.902;2022-09-25T10:59:58;1.90;;;0.70;;
23046;SDS011;11691;51.462;6.902;2022-09-25T11:05:05;4.65;;;0.65;;
23046;SDS011;11691;51.462;6.902;2022-09-25T11:07:31;3.80;;;0.80;;
23046;SDS011;11691;51.462;6.902;2022-09-25T11:09:58;5.93;;;0.90;;
23046;SDS011;11691;51.462;6.902;2022-09-25T11:12:25;3.00;;;0.77;;
23046;SDS011;11691;51.462;6.902;2022-09-25T11:14:57;1.38;;;0.68;;
23046;SDS011;11691;51.462;6.902;2022-09-25T11:17:31;2.65;;;0.85;;
23046;SDS011;11691;51.462;6.902;2022-09-25T11:22:50;4.03;;;0.60;;
23046;SDS011;11691;51.462;6.902;2022-09-25T11:25:37;2.40;;;0.70;;
23046;SDS011;11691;51.462;6.902;2022-09-25T11:28:15;2.67;;;1.05;;
23046;SDS011;11691;51.462;6.902;2022-09-25T11:31:13;4.03;;;1.25;;
23046;SDS011;11691;51.462;6.902;2022-09-25T11:33:48;2.85;;;1.05;;
23046;SDS011;11691;51.462;6.902;2022-09-25T11:36:44;3.78;;;0.60;;
23046;SDS011;11691;51.462;6.902;2022-09-25T11:39:44;2.92;;;0.60;;
23046;SDS011;11691;51.462;6.902;2022-09-25T11:42:34;2.00;;;0.60;;
23046;SDS011;11691;51.462;6.902;2022-09-25T11:45:26;1.92;;;0.60;;
23046;SDS011;11691;51.462;6.902;2022-09-25T11:48:05;5.05;;;0.80;;
23046;SDS011;11691;51.462;6.902;2022-09-25T11:51:18;2.53;;;0.60;;
23046;SDS011;11691;51.462;6.902;2022-09-25T11:56:59;1.50;;;0.45;;
23046;SDS011;11691;51.462;6.902;2022-09-25T11:59:38;1.63;;;0.50;;
23046;SDS011;11691;51.462;6.902;2022-09-25T12:02:36;2.17;;;0.65;;
23046;SDS011;11691;51.462;6.902;2022-09-25T12:10:39;2.20;;;0.60;;
23046;SDS011;11691;51.462;6.902;2022-09-25T12:21:15;1.98;;;0.50;;
23046;SDS011;11691;51.462;6.902;2022-09-25T12:26:55;2.45;;;0.50;;
23046;SDS011;11691;51.462;6.902;2022-09-25T12:29:37;4.25;;;0.70;;
23046;SDS011;11691;51.462;6.902;2022-09-25T12:34:43;3.80;;;0.80;;
23046;SDS011;11691;51.462;6.902;2022-09-25T12:37:33;2.92;;;0.68;;
23046;SDS011;11691;51.462;6.902;2022-09-25T12:40:19;1.77;;;0.50;;
23046;SDS011;11691;51.462;6.902;2022-09-25T12:42:57;3.03;;;0.50;;
23046;SDS011;11691;51.462;6.902;2022-09-25T12:48:12;1.92;;;0.60;;
23046;SDS011;11691;51.462;6.902;2022-09-25T12:54:02;2.42;;;0.50;;
23046;SDS011;11691;51.462;6.902;2022-09-25T12:56:32;1.50;;;0.65;;
23046;SDS011;11691;51.462;6.902;2022-09-25T12:59:10;4.20;;;1.02;;
23046;SDS011;11691;51.462;6.902;2022-09-25T13:09:15;2.95;;;0.40;;
23046;SDS011;11691;51.462;6.902;2022-09-25T13:11:47;2.85;;;0.88;;
23046;SDS011;11691;51.462;6.902;2022-09-25T13:14:37;1.95;;;0.50;;
23046;SDS011;11691;51.462;6.902;2022-09-25T13:17:09;2.10;;;0.40;;
23046;SDS011;11691;51.462;6.902;2022-09-25T13:19:36;1.67;;;0.32;;
23046;SDS011;11691;51.462;6.902;2022-09-25T13:22:06;3.70;;;0.52;;
23046;SDS011;11691;51.462;6.902;2022-09-25T13:24:41;1.75;;;0.43;;
23046;SDS011;11691;51.462;6.902;2022-09-25T13:27:18;2.35;;;0.47;;
23046;SDS011;11691;51.462;6.902;2022-09-25T13:29:56;2.72;;;0.30;;
23046;SDS011;11691;51.462;6.902;2022-09-25T13:32:26;2.15;;;0.45;;
23046;SDS011;11691;51.462;6.902;2022-09-25T13:35:02;2.67;;;0.40;;
23046;SDS011;11691;51.462;6.902;2022-09-25T13:37:33;2.78;;;0.60;;
23046;SDS011;11691;51.462;6.902;2022-09-25T13:40:06;1.67;;;0.30;;
23046;SDS011;11691;51.462;6.902;2022-09-25T13:43:21;2.88;;;0.55;;
23046;SDS011;11691;51.462;6.902;2022-09-25T13:46:20;2.00;;;0.40;;
23046;SDS011;11691;51.462;6.902;2022-09-25T13:48:34;3.28;;;0.50;;
23046;SDS011;11691;51.462;6.902;2022-09-25T13:53:55;3.22;;;0.60;;
23046;SDS011;11691;51.462;6.902;2022-09-25T14:04:29;1.98;;;0.30;;
23046;SDS011;11691;51.462;6.902;2022-09-25T14:07:39;3.45;;;1.27;;
23046;SDS011;11691;51.462;6.902;2022-09-25T14:09:41;2.63;;;1.00;;
23046;SDS011;11691;51.462;6.902;2022-09-25T14:12:19;2.22;;;0.95;;
23046;SDS011;11691;51.462;6.902;2022-09-25T14:14:47;2.88;;;1.08;;
23046;SDS011;11691;51.462;6.902;2022-09-25T14:17:26;3.65;;;1.20;;
23046;SDS011;11691;51.462;6.902;2022-09-25T14:19:54;1.08;;;0.70;;
23046;SDS011;11691;51.462;6.902;2022-09-25T14:22:33;3.42;;;1.10;;
23046;SDS011;11691;51.462;6.902;2022-09-25T14:25:01;2.25;;;0.60;;
23046;SDS011;11691;51.462;6.902;2022-09-25T14:27:27;4.05;;;0.80;;
23046;SDS011;11691;51.462;6.902;2022-09-25T14:30:03;2.50;;;1.35;;
23046;SDS011;11691;51.462;6.902;2022-09-25T14:38:01;4.05;;;0.60;;
23046;SDS011;11691;51.462;6.902;2022-09-25T14:40:35;3.05;;;0.50;;
23046;SDS011;11691;51.462;6.902;2022-09-25T14:43:28;2.72;;;0.80;;
23046;SDS011;11691;51.462;6.902;2022-09-25T14:45:58;2.05;;;0.50;;
23046;SDS011;11691;51.462;6.902;2022-09-25T14:48:29;2.22;;;0.70;;
23046;SDS011;11691;51.462;6.902;2022-09-25T14:51:04;3.35;;;0.75;;
23046;SDS011;11691;51.462;6.902;2022-09-25T14:53:35;7.13;;;0.80;;
23046;SDS011;11691;51.462;6.902;2022-09-25T14:56:04;2.03;;;0.57;;
23046;SDS011;11691;51.462;6.902;2022-09-25T14:58:35;3.53;;;0.95;;
23046;SDS011;11691;51.462;6.902;2022-09-25T15:03:50;3.20;;;0.70;;
23046;SDS011;11691;51.462;6.902;2022-09-25T15:06:26;4.93;;;0.80;;
23046;SDS011;11691;51.462;6.902;2022-09-25T15:08:56;3.15;;;0.60;;
23046;SDS011;11691;51.462;6.902;2022-09-25T15:11:24;3.83;;;0.65;;
23046;SDS011;11691;51.462;6.902;2022-09-25T15:13:54;4.35;;;0.90;;
23046;SDS011;11691;51.462;6.902;2022-09-25T15:16:33;2.58;;;0.80;;
23046;SDS011;11691;51.462;6.902;2022-09-25T15:19:31;2.63;;;0.90;;
23046;SDS011;11691;51.462;6.902;2022-09-25T15:21:58;2.15;;;0.50;;
23046;SDS011;11691;51.462;6.902;2022-09-25T15:24:25;3.50;;;0.68;;
23046;SDS011;11691;51.462;6.902;2022-09-25T15:26:59;0.68;;;0.50;;
23046;SDS011;11691;51.462;6.902;2022-09-25T15:29:32;3.25;;;0.90;;
23046;SDS011;11691;51.462;6.902;2022-09-25T15:31:59;4.65;;;0.80;;
23046;SDS011;11691;51.462;6.902;2022-09-25T15:34:26;3.97;;;0.88;;
23046;SDS011;11691;51.462;6.902;2022-09-25T15:37:05;3.28;;;0.77;;
23046;SDS011;11691;51.462;6.902;2022-09-25T15:39:32;3.60;;;0.60;;
23046;SDS011;11691;51.462;6.902;2022-09-25T15:42:05;3.30;;;0.55;;
23046;SDS011;11691;51.462;6.902;2022-09-25T15:44:31;2.35;;;0.88;;
23046;SDS011;11691;51.462;6.902;2022-09-25T15:46:57;3.42;;;0.70;;
23046;SDS011;11691;51.462;6.902;2022-09-25T15:49:28;3.10;;;0.80;;
23046;SDS011;11691;51.462;6.902;2022-09-25T15:52:00;3.42;;;0.75;;
23046;SDS011;11691;51.462;6.902;2022-09-25T15:54:30;2.83;;;0.70;;
23046;SDS011;11691;51.462;6.902;2022-09-25T15:56:57;3.67;;;0.88;;
23046;SDS011;11691;51.462;6.902;2022-09-25T15:59:46;3.33;;;0.80;;
23046;SDS011;11691;51.462;6.902;2022-09-25T16:02:32;4.93;;;0.90;;
23046;SDS011;11691;51.462;6.902;2022-09-25T16:05:32;2.75;;;0.60;;
23046;SDS011;11691;51.462;6.902;2022-09-25T16:13:41;1.67;;;0.80;;
23046;SDS011;11691;51.462;6.902;2022-09-25T16:16:20;2.15;;;0.80;;
23046;SDS011;11691;51.462;6.902;2022-09-25T16:18:53;1.95;;;0.50;;
23046;SDS011;11691;51.462;6.902;2022-09-25T16:21:30;3.63;;;0.80;;
23046;SDS011;11691;51.462;6.902;2022-09-25T16:24:02;3.15;;;1.00;;
23046;SDS011;11691;51.462;6.902;2022-09-25T16:26:34;2.17;;;0.70;;
23046;SDS011;11691;51.462;6.902;2022-09-25T16:31:27;4.55;;;0.85;;
23046;SDS011;11691;51.462;6.902;2022-09-25T16:33:53;2.22;;;0.70;;
23046;SDS011;11691;51.462;6.902;2022-09-25T16:36:21;1.30;;;0.75;;
23046;SDS011;11691;51.462;6.902;2022-09-25T16:41:36;2.75;;;0.80;;
23046;SDS011;11691;51.462;6.902;2022-09-25T16:44:10;3.10;;;1.00;;
23046;SDS011;11691;51.462;6.902;2022-09-25T16:46:39;3.63;;;1.20;;
23046;SDS011;11691;51.462;6.902;2022-09-25T16:49:06;5.97;;;1.08;;
23046;SDS011;11691;51.462;6.902;2022-09-25T16:51:32;2.38;;;1.00;;
23046;SDS011;11691;51.462;6.902;2022-09-25T16:53:59;2.75;;;0.90;;
23046;SDS011;11691;51.462;6.902;2022-09-25T16:56:26;2.83;;;1.02;;
23046;SDS011;11691;51.462;6.902;2022-09-25T16:58:55;3.78;;;1.10;;
23046;SDS011;11691;51.462;6.902;2022-09-25T17:01:23;2.47;;;0.88;;
23046;SDS011;11691;51.462;6.902;2022-09-25T17:03:51;1.75;;;1.02;;
23046;SDS011;11691;51.462;6.902;2022-09-25T17:06:17;2.17;;;0.80;;
23046;SDS011;11691;51.462;6.902;2022-09-25T17:08:44;2.22;;;1.00;;
23046;SDS011;11691;51.462;6.902;2022-09-25T17:11:10;1.92;;;1.27;;
23046;SDS011;11691;51.462;6.902;2022-09-25T17:13:36;3.25;;;0.68;;
23046;SDS011;11691;51.462;6.902;2022-09-25T17:16:03;7.97;;;1.10;;
23046;SDS011;11691;51.462;6.902;2022-09-25T17:18:29;3.25;;;1.17;;
23046;SDS011;11691;51.462;6.902;2022-09-25T17:20:55;1.73;;;0.98;;
23046;SDS011;11691;51.462;6.902;2022-09-25T17:23:24;3.33;;;0.95;;